Queen Of Nanaimo — VCNX — position and weather

sailwx.info

Track history (hours):
 
Tides and Currents Weather Stations Pressure Air Temp Water Temp Dewpoint Dewpoint Depression Visibility Wind Speed Wind Dir Waves Ship Positions

Queen Of Nanaimo

Last reported at 2017-May-23 17:00 UTC. Time now 2017-May-23 17:06 UTC.
Position N 49°00' W 123°08'.

Length 130 m; draft 4 m.

Type: Passenger vessel. MMSI: 316001254.

Date/timePositionNaut miles runAvg speedWind from/ knotsBaromVisibWave heightAir tempDewpointWater temp
2017-May-23 17:00N 49°00' W 123°08'2 3.2
2017-May-23 16:30N 48°59' W 123°09'815.2
2017-May-23 16:00N 48°54' W 123°17'2 2.5
2017-May-23 15:23N 48°53' W 123°19'2 5.1
2017-May-23 15:00N 48°51' W 123°20'3 2.7
2017-May-23 14:00N 48°48' W 123°19'5 9.2
2017-May-23 13:30N 48°50' W 123°25'1 2.8
2017-May-23 12:59N 48°51' W 123°27'0 0.0
2017-May-23 12:29N 48°51' W 123°27'0 0.0
2017-May-23 11:58N 48°51' W 123°27'0 0.0
2017-May-23 10:34N 48°51' W 123°27'0 0.0
2017-May-23 07:43N 48°51' W 123°27'0 0.0
2017-May-23 07:19N 48°51' W 123°27'0 0.0
2017-May-23 07:00N 48°51' W 123°27'3 6.8
2017-May-23 06:30N 48°51' W 123°22'612.1
2017-May-23 06:00N 48°56' W 123°15'713.5
2017-May-23 05:30N 49°00' W 123°08'1 1.4
2017-May-23 05:00N 48°60' W 123°08'814.9
2017-May-23 04:29N 48°54' W 123°16'4 5.9
2017-May-23 03:49N 48°51' W 123°20'0 0.0
2017-May-23 03:30N 48°51' W 123°20'0 0.0
2017-May-23 02:57N 48°51' W 123°20'2 5.1
2017-May-23 02:29N 48°53' W 123°18'715.3
2017-May-23 02:00N 48°58' W 123°11'3 5.1
2017-May-23 01:27N 49°00' W 123°08'2 4.4
2017-May-23 01:00N 48°59' W 123°09'815.0
2017-May-23 00:30N 48°53' W 123°17'1 2.4
2017-May-22 23:59N 48°53' W 123°19'2 3.7
2017-May-22 23:28N 48°51' W 123°20'1 2.6
2017-May-22 22:59N 48°51' W 123°21'4 7.0
2017-May-22 22:29N 48°51' W 123°27'0 0.0
2017-May-22 21:21N 48°51' W 123°27'0 0.0
2017-May-22 20:57N 48°51' W 123°27'0 0.0
2017-May-22 20:29N 48°51' W 123°27'4 8.0
2017-May-22 20:00N 48°48' W 123°23'2 4.2
2017-May-22 19:30N 48°48' W 123°20'3 5.6
2017-May-22 19:00N 48°51' W 123°20'2 2.9
2017-May-22 18:20N 48°53' W 123°19'513.4
2017-May-22 17:59N 48°56' W 123°14'612.0
2017-May-22 17:29N 49°00' W 123°08'0 0.1
2017-May-22 16:49N 49°00' W 123°08'411.5
2017-May-22 16:30N 48°57' W 123°10'8 6.5
2017-May-22 15:17N 48°52' W 123°19'1 3.9
2017-May-22 15:00N 48°51' W 123°20'3 2.9
2017-May-22 14:00N 48°48' W 123°19'5 9.8
2017-May-22 13:29N 48°51' W 123°26'1 0.1
2017-May-22 06:33N 48°51' W 123°27'0 0.0
2017-May-22 06:04N 48°51' W 123°27'0 0.0
2017-May-22 05:59N 48°51' W 123°27'4 8.7
2017-May-22 05:30N 48°52' W 123°21'713.2
2017-May-22 05:00N 48°57' W 123°14'5 8.7
2017-May-22 04:23N 49°00' W 123°08'410.0
2017-May-22 04:00N 48°57' W 123°11'714.7
2017-May-22 03:30N 48°52' W 123°19'1 2.6
2017-May-22 03:00N 48°51' W 123°20'2 2.9
2017-May-22 02:28N 48°52' W 123°18'814.6
2017-May-22 01:56N 48°58' W 123°11'3 6.2
2017-May-22 01:27N 49°00' W 123°08'1 2.1
2017-May-22 00:59N 48°59' W 123°08'713.9
2017-May-22 00:30N 48°54' W 123°15'3 4.6
2017-May-21 23:47N 48°52' W 123°18'1 5.0
2017-May-21 23:30N 48°51' W 123°20'1 2.2
2017-May-21 23:00N 48°51' W 123°21'4 7.0
2017-May-21 22:29N 48°51' W 123°27'0 0.0
2017-May-21 21:54N 48°51' W 123°27'0 0.0
2017-May-21 21:24N 48°51' W 123°27'1 3.2
2017-May-21 21:00N 48°50' W 123°25'5 9.5
2017-May-21 20:30N 48°48' W 123°19'3 5.5
2017-May-21 20:00N 48°51' W 123°20'1 1.9
2017-May-21 19:31N 48°52' W 123°19'2 2.9
2017-May-21 18:56N 48°53' W 123°18'614.3
2017-May-21 18:30N 48°58' W 123°12'4 6.8
2017-May-21 17:57N 49°00' W 123°08'0 0.0
2017-May-21 17:30N 49°00' W 123°08'4 7.7
2017-May-21 17:00N 48°57' W 123°11'713.5
2017-May-21 16:30N 48°52' W 123°18'2 3.2
2017-May-21 16:00N 48°52' W 123°21'1 1.4
2017-May-21 15:29N 48°51' W 123°21'3 6.4
2017-May-21 15:00N 48°48' W 123°19'6 5.1
2017-May-21 13:50N 48°51' W 123°27'0 0.0
2017-May-21 05:58N 48°51' W 123°27'4 8.6
2017-May-21 05:29N 48°51' W 123°21'2 2.9
2017-May-21 04:56N 48°52' W 123°19'1 3.0
2017-May-21 04:29N 48°53' W 123°18'714.1
2017-May-21 03:59N 48°59' W 123°11'3 5.4
2017-May-21 03:30N 49°00' W 123°08'0 0.0
2017-May-21 03:00N 49°00' W 123°08'0 0.0
2017-May-21 02:30N 49°00' W 123°08'0 0.0
2017-May-21 01:59N 49°00' W 123°08'0 0.5
2017-May-21 01:30N 49°00' W 123°08'714.7
2017-May-21 01:00N 48°54' W 123°15'3 6.0
2017-May-21 00:25N 48°52' W 123°18'1 3.0
2017-May-20 23:58N 48°51' W 123°20'3 6.0
2017-May-20 23:30N 48°48' W 123°19'3 5.4
2017-May-20 22:59N 48°49' W 123°23'3 7.0
2017-May-20 22:30N 48°51' W 123°27'0 0.0
2017-May-20 21:54N 48°51' W 123°27'1 3.5
2017-May-20 21:30N 48°50' W 123°25'612.0
2017-May-20 21:00N 48°54' W 123°17'713.9
2017-May-20 20:30N 48°59' W 123°10'2 4.4
2017-May-20 19:59N 49°00' W 123°08'0 0.9
2017-May-20 19:30N 48°60' W 123°08'714.4
2017-May-20 19:00N 48°54' W 123°15'510.2
2017-May-20 18:30N 48°51' W 123°20'1 0.9
2017-May-20 17:50N 48°51' W 123°20'2 2.2
2017-May-20 16:57N 48°53' W 123°19'613.4
2017-May-20 16:30N 48°57' W 123°13'5 8.2
2017-May-20 15:55N 49°00' W 123°08'0 0.0
2017-May-20 15:30N 49°00' W 123°08'0 0.2
2017-May-20 14:59N 49°00' W 123°08'1312.9
2017-May-20 14:00N 48°51' W 123°21'4 6.0
2017-May-20 13:25N 48°51' W 123°27'0 0.0
2017-May-20 05:47N 48°51' W 123°27'412.1
2017-May-20 05:29N 48°48' W 123°23'3 5.4
2017-May-20 05:00N 48°48' W 123°19'5 9.0
2017-May-20 04:29N 48°52' W 123°18'1 2.3
2017-May-20 04:00N 48°53' W 123°18'715.0
2017-May-20 03:30N 48°59' W 123°10'2 4.1
2017-May-20 03:00N 49°00' W 123°08'0 0.0
2017-May-20 02:30N 49°00' W 123°08'611.1
2017-May-20 01:58N 48°56' W 123°13'714.4
2017-May-20 01:30N 48°51' W 123°21'1 2.2
2017-May-20 00:59N 48°51' W 123°20'4 4.2
2017-May-20 00:05N 48°54' W 123°17'315.5
2017-May-19 23:52N 48°57' W 123°14'514.2
2017-May-19 23:30N 49°00' W 123°08'0 0.3
2017-May-19 23:00N 49°00' W 123°08'0 0.1
2017-May-19 22:29N 49°00' W 123°08'613.0
2017-May-19 22:00N 48°55' W 123°14'612.7
2017-May-19 21:30N 48°51' W 123°21'3 2.8
2017-May-19 20:22N 48°51' W 123°26'411.6
2017-May-19 20:00N 48°48' W 123°22'1 2.7
2017-May-19 19:30N 48°48' W 123°20'3 5.6
2017-May-19 18:59N 48°51' W 123°20'2 2.8
2017-May-19 18:17N 48°53' W 123°19'413.5
2017-May-19 18:00N 48°56' W 123°15'713.2
2017-May-19 17:30N 49°00' W 123°08'0 0.6
2017-May-19 17:00N 49°00' W 123°08'0 0.0
2017-May-19 16:30N 49°00' W 123°08'4 7.8
2017-May-19 16:00N 48°58' W 123°12'712.8
2017-May-19 15:28N 48°53' W 123°19'1 3.1
2017-May-19 15:00N 48°52' W 123°21'4 3.8
2017-May-19 14:01N 48°48' W 123°19'5 8.7
2017-May-19 13:29N 48°50' W 123°25'2 0.2
2017-May-19 05:47N 48°51' W 123°27'0 1.5
2017-May-19 05:30N 48°51' W 123°26'611.3
2017-May-19 05:00N 48°48' W 123°19'3 5.0
2017-May-19 04:29N 48°50' W 123°20'1 2.1
2017-May-19 04:00N 48°51' W 123°21'3 4.2
2017-May-19 03:21N 48°53' W 123°18'513.9
2017-May-19 03:00N 48°57' W 123°13'5 9.5
2017-May-19 02:29N 49°00' W 123°08'0 0.0
2017-May-19 01:59N 49°00' W 123°08'0 0.5
2017-May-19 01:29N 49°00' W 123°08'714.0
2017-May-19 01:00N 48°55' W 123°15'4 6.6
2017-May-19 00:27N 48°53' W 123°19'2 3.0
2017-May-18 23:48N 48°51' W 123°20'0 0.5
2017-May-18 23:30N 48°51' W 123°20'3 5.5
2017-May-18 23:00N 48°48' W 123°19'4 8.6
2017-May-18 22:30N 48°50' W 123°25'2 2.2
2017-May-18 21:43N 48°51' W 123°27'0 0.0
2017-May-18 21:28N 48°51' W 123°27'0 0.4
2017-May-18 20:10N 48°51' W 123°26'211.4
2017-May-18 20:01N 48°49' W 123°24'4 7.8
2017-May-18 19:30N 48°48' W 123°19'3 4.1
2017-May-18 18:51N 48°51' W 123°20'3 4.1
2017-May-18 18:02N 48°54' W 123°17'015.1
2017-May-18 18:00N 48°54' W 123°17'714.8
2017-May-18 17:31N 48°59' W 123°09'1 2.3
2017-May-18 16:55N 49°00' W 123°08'0 0.0
2017-May-18 16:29N 49°00' W 123°08'5 9.8
2017-May-18 16:00N 48°57' W 123°12'6 8.2
2017-May-18 15:17N 48°53' W 123°19'2 6.9
2017-May-18 15:01N 48°51' W 123°20'3 2.8
2017-May-18 14:00N 48°48' W 123°19'5 8.3
2017-May-18 13:27N 48°50' W 123°25'1 0.2
2017-May-18 05:51N 48°51' W 123°27'3 9.7
2017-May-18 05:30N 48°49' W 123°24'3 6.2
2017-May-18 05:00N 48°48' W 123°19'3 5.1
2017-May-18 04:28N 48°51' W 123°20'2 3.1
2017-May-18 03:51N 48°53' W 123°19'513.8
2017-May-18 03:28N 48°57' W 123°14'511.9
2017-May-18 03:01N 49°00' W 123°08'0 0.0
2017-May-18 02:30N 49°00' W 123°08'2 3.7
2017-May-18 02:00N 48°59' W 123°10'914.5
2017-May-18 01:24N 48°53' W 123°19'2 3.6
2017-May-18 00:59N 48°52' W 123°21'1 2.4
2017-May-18 00:30N 48°51' W 123°20'3 5.5
2017-May-18 00:00N 48°48' W 123°19'610.5
2017-May-17 23:27N 48°51' W 123°27'0 0.2
2017-May-17 22:57N 48°51' W 123°27'0 0.0
2017-May-17 22:30N 48°51' W 123°27'0 0.0
2017-May-17 22:00N 48°51' W 123°27'0 0.0
2017-May-17 20:07N 48°51' W 123°27'0 2.4
2017-May-17 20:00N 48°51' W 123°26'611.6
2017-May-17 19:30N 48°48' W 123°19'3 5.4
2017-May-17 19:00N 48°50' W 123°20'2 3.3
2017-May-17 18:29N 48°52' W 123°19'2 4.8
2017-May-17 18:00N 48°54' W 123°17'815.3
2017-May-17 17:30N 48°60' W 123°09'1 2.2
2017-May-17 17:00N 49°00' W 123°08'0 0.0
2017-May-17 16:30N 49°00' W 123°08'3 5.7
2017-May-17 15:59N 48°58' W 123°10'715.1
2017-May-17 15:29N 48°53' W 123°18'1 2.8
2017-May-17 15:00N 48°51' W 123°20'4 3.5
2017-May-17 14:00N 48°48' W 123°19'4 8.2
2017-May-17 13:30N 48°50' W 123°25'2 0.2
2017-May-17 05:17N 48°51' W 123°27'3 8.7
2017-May-17 04:59N 48°49' W 123°24'4 7.7
2017-May-17 04:30N 48°48' W 123°19'3 5.3
2017-May-17 04:00N 48°51' W 123°20'2 3.5
2017-May-17 03:30N 48°52' W 123°18'2 3.8
2017-May-17 03:01N 48°54' W 123°17'814.2
2017-May-17 02:28N 48°59' W 123°09'1 2.7
2017-May-17 02:00N 49°00' W 123°08'0 0.0
2017-May-17 01:30N 49°00' W 123°08'510.9
2017-May-17 01:00N 48°56' W 123°13'6 7.4
2017-May-17 00:14N 48°52' W 123°18'1 6.3
2017-May-17 00:00N 48°51' W 123°20'0 0.4
2017-May-16 23:30N 48°51' W 123°20'3 5.7
2017-May-16 23:00N 48°48' W 123°19'4 8.4
2017-May-16 22:30N 48°50' W 123°25'2 3.8
2017-May-16 21:59N 48°51' W 123°27'0 0.0
2017-May-16 20:04N 48°51' W 123°27'0 7.1
2017-May-16 20:00N 48°51' W 123°26'611.1
2017-May-16 19:30N 48°48' W 123°19'3 5.8
2017-May-16 19:00N 48°51' W 123°20'2 3.5
2017-May-16 18:26N 48°52' W 123°18'1 1.7
2017-May-16 18:00N 48°53' W 123°18'814.7
2017-May-16 17:29N 48°58' W 123°10'2 4.9
2017-May-16 17:00N 49°00' W 123°08'0 0.0
2017-May-16 16:30N 49°00' W 123°08'4 8.3
2017-May-16 15:58N 48°57' W 123°12'612.9
2017-May-16 15:30N 48°52' W 123°18'2 3.3
2017-May-16 15:00N 48°52' W 123°20'1 1.9
2017-May-16 14:30N 48°51' W 123°20'4 3.4
2017-May-16 13:28N 48°50' W 123°25'2 3.3
2017-May-16 13:00N 48°51' W 123°27'0 0.0
2017-May-16 05:18N 48°51' W 123°27'2 7.4
2017-May-16 05:01N 48°50' W 123°25'4 8.1
2017-May-16 04:30N 48°48' W 123°19'3 5.3
2017-May-16 04:00N 48°51' W 123°20'2 3.8
2017-May-16 03:29N 48°53' W 123°18'2 3.9
2017-May-16 03:00N 48°54' W 123°17'714.2
2017-May-16 02:30N 48°59' W 123°10'2 3.3
2017-May-16 02:00N 49°00' W 123°08'0 0.0
2017-May-16 01:29N 49°00' W 123°08'612.0
2017-May-16 01:00N 48°56' W 123°13'5 6.8
2017-May-16 00:18N 48°53' W 123°19'2 6.4
2017-May-16 00:00N 48°51' W 123°20'0 0.4
2017-May-15 23:30N 48°51' W 123°20'3 5.4
2017-May-15 23:00N 48°48' W 123°19'4 8.4
2017-May-15 22:29N 48°50' W 123°25'2 0.8
2017-May-15 20:22N 48°51' W 123°27'1 2.6
2017-May-15 19:59N 48°51' W 123°25'510.6
2017-May-15 19:30N 48°48' W 123°19'3 5.4
2017-May-15 19:00N 48°51' W 123°20'1 2.4
2017-May-15 18:28N 48°52' W 123°19'2 3.9
2017-May-15 18:00N 48°53' W 123°18'715.1
2017-May-15 17:30N 48°59' W 123°10'2 3.6
2017-May-15 16:57N 49°00' W 123°08'0 0.1
2017-May-15 16:27N 49°00' W 123°08'3 7.6
2017-May-15 16:00N 48°58' W 123°11'9 8.3
2017-May-15 14:56N 48°52' W 123°21'4 4.0
2017-May-15 14:00N 48°48' W 123°19'5 9.3
2017-May-15 13:30N 48°50' W 123°25'1 0.2
2017-May-15 06:27N 48°51' W 123°27'1 1.9
2017-May-15 05:51N 48°51' W 123°25'613.1
2017-May-15 05:26N 48°53' W 123°18'715.6
2017-May-15 04:59N 48°58' W 123°11'3 6.1
2017-May-15 04:30N 49°00' W 123°08'610.6
2017-May-15 03:59N 48°56' W 123°13'714.0
2017-May-15 03:31N 48°52' W 123°21'1 2.3
2017-May-15 03:00N 48°51' W 123°20'1 3.0
2017-May-15 02:30N 48°52' W 123°18'715.0
2017-May-15 02:00N 48°58' W 123°12'4 5.0
2017-May-15 01:16N 49°00' W 123°08'0 0.0
2017-May-15 01:00N 49°00' W 123°08'612.5
2017-May-15 00:30N 48°55' W 123°13'4 4.8
2017-May-14 23:41N 48°53' W 123°18'211.6
2017-May-14 23:30N 48°52' W 123°21'1 1.3
2017-May-14 23:00N 48°51' W 123°21'4 2.0
2017-May-14 21:05N 48°51' W 123°27'1 6.3
2017-May-14 20:58N 48°51' W 123°26'511.8
2017-May-14 20:30N 48°48' W 123°19'3 5.3
2017-May-14 20:00N 48°50' W 123°20'1 1.6
2017-May-14 19:30N 48°51' W 123°21'3 5.0
2017-May-14 18:55N 48°53' W 123°18'614.5
2017-May-14 18:30N 48°58' W 123°12'4 7.2
2017-May-14 17:59N 49°00' W 123°08'0 0.0
2017-May-14 17:28N 49°00' W 123°08'3 7.1
2017-May-14 17:00N 48°58' W 123°10'8 8.2
2017-May-14 16:05N 48°53' W 123°19'1 7.4
2017-May-14 15:59N 48°52' W 123°18'1 2.8
2017-May-14 15:30N 48°51' W 123°20'3 5.5
2017-May-14 15:00N 48°48' W 123°19'4 8.0
2017-May-14 14:30N 48°50' W 123°25'2 0.2
2017-May-14 06:00N 48°51' W 123°27'3 5.5
2017-May-14 05:30N 48°51' W 123°23'2 3.6
2017-May-14 05:00N 48°52' W 123°20'1 2.5
2017-May-14 04:30N 48°53' W 123°19'715.1
2017-May-14 04:00N 48°58' W 123°11'3 6.2
2017-May-14 03:30N 49°00' W 123°08'0 0.0
2017-May-14 03:01N 49°00' W 123°08'0 0.0
2017-May-14 02:31N 49°00' W 123°08'0 0.0
2017-May-14 02:01N 49°00' W 123°08'0 0.0
2017-May-14 01:28N 49°00' W 123°08'1110.3
2017-May-14 00:27N 48°53' W 123°19'2 4.0
2017-May-13 23:58N 48°51' W 123°20'3 6.2
2017-May-13 23:30N 48°48' W 123°19'2 4.6
2017-May-13 23:00N 48°48' W 123°23'4 1.9
2017-May-13 20:53N 48°51' W 123°27'1 3.8
2017-May-13 20:30N 48°51' W 123°25'611.4
2017-May-13 20:00N 48°54' W 123°17'714.1
2017-May-13 19:28N 48°60' W 123°09'1 2.5
2017-May-13 18:56N 49°00' W 123°08'510.6
2017-May-13 18:30N 48°57' W 123°12'714.0
2017-May-13 18:00N 48°51' W 123°19'1 1.4
2017-May-13 17:22N 48°51' W 123°20'0 0.7
2017-May-13 17:00N 48°51' W 123°20'  
Track history (hours):
 
Tides and Currents Weather Stations Pressure Air Temp Water Temp Dewpoint Dewpoint Depression Visibility Wind Speed Wind Dir Waves Ship Positions

Queen Of Nanaimo

Last reported at 2017-May-23 17:00 UTC. Time now 2017-May-23 17:06 UTC.
Position N 49°00' W 123°08'.

Length 130 m; draft 4 m.

Type: Passenger vessel. MMSI: 316001254.

Date/timePositionNaut miles runAvg speedWind from/ knotsBaromVisibWave heightAir tempDewpointWater temp
2017-May-23 17:00N 49°00' W 123°08'2 3.2
2017-May-23 16:30N 48°59' W 123°09'815.2
2017-May-23 16:00N 48°54' W 123°17'2 2.5
2017-May-23 15:23N 48°53' W 123°19'2 5.1
2017-May-23 15:00N 48°51' W 123°20'3 2.7
2017-May-23 14:00N 48°48' W 123°19'5 9.2
2017-May-23 13:30N 48°50' W 123°25'1 2.8
2017-May-23 12:59N 48°51' W 123°27'0 0.0
2017-May-23 12:29N 48°51' W 123°27'0 0.0
2017-May-23 11:58N 48°51' W 123°27'0 0.0
2017-May-23 10:34N 48°51' W 123°27'0 0.0
2017-May-23 07:43N 48°51' W 123°27'0 0.0
2017-May-23 07:19N 48°51' W 123°27'0 0.0
2017-May-23 07:00N 48°51' W 123°27'3 6.8
2017-May-23 06:30N 48°51' W 123°22'612.1
2017-May-23 06:00N 48°56' W 123°15'713.5
2017-May-23 05:30N 49°00' W 123°08'1 1.4
2017-May-23 05:00N 48°60' W 123°08'814.9
2017-May-23 04:29N 48°54' W 123°16'4 5.9
2017-May-23 03:49N 48°51' W 123°20'0 0.0
2017-May-23 03:30N 48°51' W 123°20'0 0.0
2017-May-23 02:57N 48°51' W 123°20'2 5.1
2017-May-23 02:29N 48°53' W 123°18'715.3
2017-May-23 02:00N 48°58' W 123°11'3 5.1
2017-May-23 01:27N 49°00' W 123°08'2 4.4
2017-May-23 01:00N 48°59' W 123°09'815.0
2017-May-23 00:30N 48°53' W 123°17'1 2.4
2017-May-22 23:59N 48°53' W 123°19'2 3.7
2017-May-22 23:28N 48°51' W 123°20'1 2.6
2017-May-22 22:59N 48°51' W 123°21'4 7.0
2017-May-22 22:29N 48°51' W 123°27'0 0.0
2017-May-22 21:21N 48°51' W 123°27'0 0.0
2017-May-22 20:57N 48°51' W 123°27'0 0.0
2017-May-22 20:29N 48°51' W 123°27'4 8.0
2017-May-22 20:00N 48°48' W 123°23'2 4.2
2017-May-22 19:30N 48°48' W 123°20'3 5.6
2017-May-22 19:00N 48°51' W 123°20'2 2.9
2017-May-22 18:20N 48°53' W 123°19'513.4
2017-May-22 17:59N 48°56' W 123°14'612.0
2017-May-22 17:29N 49°00' W 123°08'0 0.1
2017-May-22 16:49N 49°00' W 123°08'411.5
2017-May-22 16:30N 48°57' W 123°10'8 6.5
2017-May-22 15:17N 48°52' W 123°19'1 3.9
2017-May-22 15:00N 48°51' W 123°20'3 2.9
2017-May-22 14:00N 48°48' W 123°19'5 9.8
2017-May-22 13:29N 48°51' W 123°26'1 0.1
2017-May-22 06:33N 48°51' W 123°27'0 0.0
2017-May-22 06:04N 48°51' W 123°27'0 0.0
2017-May-22 05:59N 48°51' W 123°27'4 8.7
2017-May-22 05:30N 48°52' W 123°21'713.2
2017-May-22 05:00N 48°57' W 123°14'5 8.7
2017-May-22 04:23N 49°00' W 123°08'410.0
2017-May-22 04:00N 48°57' W 123°11'714.7
2017-May-22 03:30N 48°52' W 123°19'1 2.6
2017-May-22 03:00N 48°51' W 123°20'2 2.9
2017-May-22 02:28N 48°52' W 123°18'814.6
2017-May-22 01:56N 48°58' W 123°11'3 6.2
2017-May-22 01:27N 49°00' W 123°08'1 2.1
2017-May-22 00:59N 48°59' W 123°08'713.9
2017-May-22 00:30N 48°54' W 123°15'3 4.6
2017-May-21 23:47N 48°52' W 123°18'1 5.0
2017-May-21 23:30N 48°51' W 123°20'1 2.2
2017-May-21 23:00N 48°51' W 123°21'4 7.0
2017-May-21 22:29N 48°51' W 123°27'0 0.0
2017-May-21 21:54N 48°51' W 123°27'0 0.0
2017-May-21 21:24N 48°51' W 123°27'1 3.2
2017-May-21 21:00N 48°50' W 123°25'5 9.5
2017-May-21 20:30N 48°48' W 123°19'3 5.5
2017-May-21 20:00N 48°51' W 123°20'1 1.9
2017-May-21 19:31N 48°52' W 123°19'2 2.9
2017-May-21 18:56N 48°53' W 123°18'614.3
2017-May-21 18:30N 48°58' W 123°12'4 6.8
2017-May-21 17:57N 49°00' W 123°08'0 0.0
2017-May-21 17:30N 49°00' W 123°08'4 7.7
2017-May-21 17:00N 48°57' W 123°11'713.5
2017-May-21 16:30N 48°52' W 123°18'2 3.2
2017-May-21 16:00N 48°52' W 123°21'1 1.4
2017-May-21 15:29N 48°51' W 123°21'3 6.4
2017-May-21 15:00N 48°48' W 123°19'6 5.1
2017-May-21 13:50N 48°51' W 123°27'0 0.0
2017-May-21 05:58N 48°51' W 123°27'4 8.6
2017-May-21 05:29N 48°51' W 123°21'2 2.9
2017-May-21 04:56N 48°52' W 123°19'1 3.0
2017-May-21 04:29N 48°53' W 123°18'714.1
2017-May-21 03:59N 48°59' W 123°11'3 5.4
2017-May-21 03:30N 49°00' W 123°08'0 0.0
2017-May-21 03:00N 49°00' W 123°08'0 0.0
2017-May-21 02:30N 49°00' W 123°08'0 0.0
2017-May-21 01:59N 49°00' W 123°08'0 0.5
2017-May-21 01:30N 49°00' W 123°08'714.7
2017-May-21 01:00N 48°54' W 123°15'3 6.0
2017-May-21 00:25N 48°52' W 123°18'1 3.0
2017-May-20 23:58N 48°51' W 123°20'3 6.0
2017-May-20 23:30N 48°48' W 123°19'3 5.4
2017-May-20 22:59N 48°49' W 123°23'3 7.0
2017-May-20 22:30N 48°51' W 123°27'0 0.0
2017-May-20 21:54N 48°51' W 123°27'1 3.5
2017-May-20 21:30N 48°50' W 123°25'612.0
2017-May-20 21:00N 48°54' W 123°17'713.9
2017-May-20 20:30N 48°59' W 123°10'2 4.4
2017-May-20 19:59N 49°00' W 123°08'0 0.9
2017-May-20 19:30N 48°60' W 123°08'714.4
2017-May-20 19:00N 48°54' W 123°15'510.2
2017-May-20 18:30N 48°51' W 123°20'1 0.9
2017-May-20 17:50N 48°51' W 123°20'2 2.2
2017-May-20 16:57N 48°53' W 123°19'613.4
2017-May-20 16:30N 48°57' W 123°13'5 8.2
2017-May-20 15:55N 49°00' W 123°08'0 0.0
2017-May-20 15:30N 49°00' W 123°08'0 0.2
2017-May-20 14:59N 49°00' W 123°08'1312.9
2017-May-20 14:00N 48°51' W 123°21'4 6.0
2017-May-20 13:25N 48°51' W 123°27'0 0.0
2017-May-20 05:47N 48°51' W 123°27'412.1
2017-May-20 05:29N 48°48' W 123°23'3 5.4
2017-May-20 05:00N 48°48' W 123°19'5 9.0
2017-May-20 04:29N 48°52' W 123°18'1 2.3
2017-May-20 04:00N 48°53' W 123°18'715.0
2017-May-20 03:30N 48°59' W 123°10'2 4.1
2017-May-20 03:00N 49°00' W 123°08'0 0.0
2017-May-20 02:30N 49°00' W 123°08'611.1
2017-May-20 01:58N 48°56' W 123°13'714.4
2017-May-20 01:30N 48°51' W 123°21'1 2.2
2017-May-20 00:59N 48°51' W 123°20'4 4.2
2017-May-20 00:05N 48°54' W 123°17'315.5
2017-May-19 23:52N 48°57' W 123°14'514.2
2017-May-19 23:30N 49°00' W 123°08'0 0.3
2017-May-19 23:00N 49°00' W 123°08'0 0.1
2017-May-19 22:29N 49°00' W 123°08'613.0
2017-May-19 22:00N 48°55' W 123°14'612.7
2017-May-19 21:30N 48°51' W 123°21'3 2.8
2017-May-19 20:22N 48°51' W 123°26'411.6
2017-May-19 20:00N 48°48' W 123°22'1 2.7
2017-May-19 19:30N 48°48' W 123°20'3 5.6
2017-May-19 18:59N 48°51' W 123°20'2 2.8
2017-May-19 18:17N 48°53' W 123°19'413.5
2017-May-19 18:00N 48°56' W 123°15'713.2
2017-May-19 17:30N 49°00' W 123°08'0 0.6
2017-May-19 17:00N 49°00' W 123°08'0 0.0
2017-May-19 16:30N 49°00' W 123°08'4 7.8
2017-May-19 16:00N 48°58' W 123°12'712.8
2017-May-19 15:28N 48°53' W 123°19'1 3.1
2017-May-19 15:00N 48°52' W 123°21'4 3.8
2017-May-19 14:01N 48°48' W 123°19'5 8.7
2017-May-19 13:29N 48°50' W 123°25'2 0.2
2017-May-19 05:47N 48°51' W 123°27'0 1.5
2017-May-19 05:30N 48°51' W 123°26'611.3
2017-May-19 05:00N 48°48' W 123°19'3 5.0
2017-May-19 04:29N 48°50' W 123°20'1 2.1
2017-May-19 04:00N 48°51' W 123°21'3 4.2
2017-May-19 03:21N 48°53' W 123°18'513.9
2017-May-19 03:00N 48°57' W 123°13'5 9.5
2017-May-19 02:29N 49°00' W 123°08'0 0.0
2017-May-19 01:59N 49°00' W 123°08'0 0.5
2017-May-19 01:29N 49°00' W 123°08'714.0
2017-May-19 01:00N 48°55' W 123°15'4 6.6
2017-May-19 00:27N 48°53' W 123°19'2 3.0
2017-May-18 23:48N 48°51' W 123°20'0 0.5
2017-May-18 23:30N 48°51' W 123°20'3 5.5
2017-May-18 23:00N 48°48' W 123°19'4 8.6
2017-May-18 22:30N 48°50' W 123°25'2 2.2
2017-May-18 21:43N 48°51' W 123°27'0 0.0
2017-May-18 21:28N 48°51' W 123°27'0 0.4
2017-May-18 20:10N 48°51' W 123°26'211.4
2017-May-18 20:01N 48°49' W 123°24'4 7.8
2017-May-18 19:30N 48°48' W 123°19'3 4.1
2017-May-18 18:51N 48°51' W 123°20'3 4.1
2017-May-18 18:02N 48°54' W 123°17'015.1
2017-May-18 18:00N 48°54' W 123°17'714.8
2017-May-18 17:31N 48°59' W 123°09'1 2.3
2017-May-18 16:55N 49°00' W 123°08'0 0.0
2017-May-18 16:29N 49°00' W 123°08'5 9.8
2017-May-18 16:00N 48°57' W 123°12'6 8.2
2017-May-18 15:17N 48°53' W 123°19'2 6.9
2017-May-18 15:01N 48°51' W 123°20'3 2.8
2017-May-18 14:00N 48°48' W 123°19'5 8.3
2017-May-18 13:27N 48°50' W 123°25'1 0.2
2017-May-18 05:51N 48°51' W 123°27'3 9.7
2017-May-18 05:30N 48°49' W 123°24'3 6.2
2017-May-18 05:00N 48°48' W 123°19'3 5.1
2017-May-18 04:28N 48°51' W 123°20'2 3.1
2017-May-18 03:51N 48°53' W 123°19'513.8
2017-May-18 03:28N 48°57' W 123°14'511.9
2017-May-18 03:01N 49°00' W 123°08'0 0.0
2017-May-18 02:30N 49°00' W 123°08'2 3.7
2017-May-18 02:00N 48°59' W 123°10'914.5
2017-May-18 01:24N 48°53' W 123°19'2 3.6
2017-May-18 00:59N 48°52' W 123°21'1 2.4
2017-May-18 00:30N 48°51' W 123°20'3 5.5
2017-May-18 00:00N 48°48' W 123°19'610.5
2017-May-17 23:27N 48°51' W 123°27'0 0.2
2017-May-17 22:57N 48°51' W 123°27'0 0.0
2017-May-17 22:30N 48°51' W 123°27'0 0.0
2017-May-17 22:00N 48°51' W 123°27'0 0.0
2017-May-17 20:07N 48°51' W 123°27'0 2.4
2017-May-17 20:00N 48°51' W 123°26'611.6
2017-May-17 19:30N 48°48' W 123°19'3 5.4
2017-May-17 19:00N 48°50' W 123°20'2 3.3
2017-May-17 18:29N 48°52' W 123°19'2 4.8
2017-May-17 18:00N 48°54' W 123°17'815.3
2017-May-17 17:30N 48°60' W 123°09'1 2.2
2017-May-17 17:00N 49°00' W 123°08'0 0.0
2017-May-17 16:30N 49°00' W 123°08'3 5.7
2017-May-17 15:59N 48°58' W 123°10'715.1
2017-May-17 15:29N 48°53' W 123°18'1 2.8
2017-May-17 15:00N 48°51' W 123°20'4 3.5
2017-May-17 14:00N 48°48' W 123°19'4 8.2
2017-May-17 13:30N 48°50' W 123°25'2 0.2
2017-May-17 05:17N 48°51' W 123°27'3 8.7
2017-May-17 04:59N 48°49' W 123°24'4 7.7
2017-May-17 04:30N 48°48' W 123°19'3 5.3
2017-May-17 04:00N 48°51' W 123°20'2 3.5
2017-May-17 03:30N 48°52' W 123°18'2 3.8
2017-May-17 03:01N 48°54' W 123°17'814.2
2017-May-17 02:28N 48°59' W 123°09'1 2.7
2017-May-17 02:00N 49°00' W 123°08'0 0.0
2017-May-17 01:30N 49°00' W 123°08'510.9
2017-May-17 01:00N 48°56' W 123°13'6 7.4
2017-May-17 00:14N 48°52' W 123°18'1 6.3
2017-May-17 00:00N 48°51' W 123°20'0 0.4
2017-May-16 23:30N 48°51' W 123°20'3 5.7
2017-May-16 23:00N 48°48' W 123°19'4 8.4
2017-May-16 22:30N 48°50' W 123°25'2 3.8
2017-May-16 21:59N 48°51' W 123°27'0 0.0
2017-May-16 20:04N 48°51' W 123°27'0 7.1
2017-May-16 20:00N 48°51' W 123°26'611.1
2017-May-16 19:30N 48°48' W 123°19'3 5.8
2017-May-16 19:00N 48°51' W 123°20'2 3.5
2017-May-16 18:26N 48°52' W 123°18'1 1.7
2017-May-16 18:00N 48°53' W 123°18'814.7
2017-May-16 17:29N 48°58' W 123°10'2 4.9
2017-May-16 17:00N 49°00' W 123°08'0 0.0
2017-May-16 16:30N 49°00' W 123°08'4 8.3
2017-May-16 15:58N 48°57' W 123°12'612.9
2017-May-16 15:30N 48°52' W 123°18'2 3.3
2017-May-16 15:00N 48°52' W 123°20'1 1.9
2017-May-16 14:30N 48°51' W 123°20'4 3.4
2017-May-16 13:28N 48°50' W 123°25'2 3.3
2017-May-16 13:00N 48°51' W 123°27'0 0.0
2017-May-16 05:18N 48°51' W 123°27'2 7.4
2017-May-16 05:01N 48°50' W 123°25'4 8.1
2017-May-16 04:30N 48°48' W 123°19'3 5.3
2017-May-16 04:00N 48°51' W 123°20'2 3.8
2017-May-16 03:29N 48°53' W 123°18'2 3.9
2017-May-16 03:00N 48°54' W 123°17'714.2
2017-May-16 02:30N 48°59' W 123°10'2 3.3
2017-May-16 02:00N 49°00' W 123°08'0 0.0
2017-May-16 01:29N 49°00' W 123°08'612.0
2017-May-16 01:00N 48°56' W 123°13'5 6.8
2017-May-16 00:18N 48°53' W 123°19'2 6.4
2017-May-16 00:00N 48°51' W 123°20'0 0.4
2017-May-15 23:30N 48°51' W 123°20'3 5.4
2017-May-15 23:00N 48°48' W 123°19'4 8.4
2017-May-15 22:29N 48°50' W 123°25'2 0.8
2017-May-15 20:22N 48°51' W 123°27'1 2.6
2017-May-15 19:59N 48°51' W 123°25'510.6
2017-May-15 19:30N 48°48' W 123°19'3 5.4
2017-May-15 19:00N 48°51' W 123°20'1 2.4
2017-May-15 18:28N 48°52' W 123°19'2 3.9
2017-May-15 18:00N 48°53' W 123°18'715.1
2017-May-15 17:30N 48°59' W 123°10'2 3.6
2017-May-15 16:57N 49°00' W 123°08'0 0.1
2017-May-15 16:27N 49°00' W 123°08'3 7.6
2017-May-15 16:00N 48°58' W 123°11'9 8.3
2017-May-15 14:56N 48°52' W 123°21'4 4.0
2017-May-15 14:00N 48°48' W 123°19'5 9.3
2017-May-15 13:30N 48°50' W 123°25'1 0.2
2017-May-15 06:27N 48°51' W 123°27'1 1.9
2017-May-15 05:51N 48°51' W 123°25'613.1
2017-May-15 05:26N 48°53' W 123°18'715.6
2017-May-15 04:59N 48°58' W 123°11'3 6.1
2017-May-15 04:30N 49°00' W 123°08'610.6
2017-May-15 03:59N 48°56' W 123°13'714.0
2017-May-15 03:31N 48°52' W 123°21'1 2.3
2017-May-15 03:00N 48°51' W 123°20'1 3.0
2017-May-15 02:30N 48°52' W 123°18'715.0
2017-May-15 02:00N 48°58' W 123°12'4 5.0
2017-May-15 01:16N 49°00' W 123°08'0 0.0
2017-May-15 01:00N 49°00' W 123°08'612.5
2017-May-15 00:30N 48°55' W 123°13'4 4.8
2017-May-14 23:41N 48°53' W 123°18'211.6
2017-May-14 23:30N 48°52' W 123°21'1 1.3
2017-May-14 23:00N 48°51' W 123°21'4 2.0
2017-May-14 21:05N 48°51' W 123°27'1 6.3
2017-May-14 20:58N 48°51' W 123°26'511.8
2017-May-14 20:30N 48°48' W 123°19'3 5.3
2017-May-14 20:00N 48°50' W 123°20'1 1.6
2017-May-14 19:30N 48°51' W 123°21'3 5.0
2017-May-14 18:55N 48°53' W 123°18'614.5
2017-May-14 18:30N 48°58' W 123°12'4 7.2
2017-May-14 17:59N 49°00' W 123°08'0 0.0
2017-May-14 17:28N 49°00' W 123°08'3 7.1
2017-May-14 17:00N 48°58' W 123°10'8 8.2
2017-May-14 16:05N 48°53' W 123°19'1 7.4
2017-May-14 15:59N 48°52' W 123°18'1 2.8
2017-May-14 15:30N 48°51' W 123°20'3 5.5
2017-May-14 15:00N 48°48' W 123°19'4 8.0
2017-May-14 14:30N 48°50' W 123°25'2 0.2
2017-May-14 06:00N 48°51' W 123°27'3 5.5
2017-May-14 05:30N 48°51' W 123°23'2 3.6
2017-May-14 05:00N 48°52' W 123°20'1 2.5
2017-May-14 04:30N 48°53' W 123°19'715.1
2017-May-14 04:00N 48°58' W 123°11'3 6.2
2017-May-14 03:30N 49°00' W 123°08'0 0.0
2017-May-14 03:01N 49°00' W 123°08'0 0.0
2017-May-14 02:31N 49°00' W 123°08'0 0.0
2017-May-14 02:01N 49°00' W 123°08'0 0.0
2017-May-14 01:28N 49°00' W 123°08'1110.3
2017-May-14 00:27N 48°53' W 123°19'2 4.0
2017-May-13 23:58N 48°51' W 123°20'3 6.2
2017-May-13 23:30N 48°48' W 123°19'2 4.6
2017-May-13 23:00N 48°48' W 123°23'4 1.9
2017-May-13 20:53N 48°51' W 123°27'1 3.8
2017-May-13 20:30N 48°51' W 123°25'611.4
2017-May-13 20:00N 48°54' W 123°17'714.1
2017-May-13 19:28N 48°60' W 123°09'1 2.5
2017-May-13 18:56N 49°00' W 123°08'510.6
2017-May-13 18:30N 48°57' W 123°12'714.0
2017-May-13 18:00N 48°51' W 123°19'1 1.4
2017-May-13 17:22N 48°51' W 123°20'0 0.7
2017-May-13 17:00N 48°51' W 123°20'  

Dump ship's entire track history